< < Back
Terminal Aerodrome Forecast


Current Version              Previous Versions:   1  2  3  4  5  6  7  8  9  

Terminal Aerodrome Forecast

098
FTUS42 KGSP 260232 AAA
TAFCLT
TAF AMD
KCLT 260232Z 2603/2624 26004KT P6SM FEW250
     FM260500 30003KT P6SM FEW250
     FM261500 31008KT P6SM SKC=



Latest METAR

349
SAUS70 KWBC 260200
MTRCLT
METAR KCLT 260152Z 26003KT 10SM CLR 14/04 A2996 RMK AO2 SLP141
T01440044


USA.gov is the U.S. government's official web portal to all federal, state and local government web resources and services.